createdAt,value
2022-12-12T00:02:15.305Z,7.00
2022-12-12T00:04:45.492Z,7.45
2022-12-12T00:07:15.600Z,6.65
2022-12-12T00:09:46.746Z,6.05
2022-12-12T00:12:16.795Z,6.28
2022-12-12T00:14:46.832Z,6.72
2022-12-12T00:17:22.247Z,5.55
2022-12-12T00:19:52.931Z,7.32
2022-12-12T00:22:23.063Z,6.10
2022-12-12T00:24:53.097Z,7.15
2022-12-12T00:27:23.215Z,6.22
2022-12-12T00:29:55.937Z,6.18
2022-12-12T00:32:28.830Z,5.97
2022-12-12T00:34:58.951Z,6.95
2022-12-12T00:37:29.000Z,5.70
2022-12-12T00:39:59.866Z,6.50
2022-12-12T00:42:30.159Z,5.32
2022-12-12T00:45:00.467Z,6.07
2022-12-12T00:47:33.205Z,5.60
2022-12-12T00:50:03.381Z,6.43
2022-12-12T00:52:33.396Z,8.35
2022-12-12T00:55:03.446Z,6.20
2022-12-12T00:57:33.610Z,7.50
2022-12-12T01:00:03.847Z,6.43
2022-12-12T01:02:36.843Z,6.05
2022-12-12T01:05:11.127Z,5.47
2022-12-12T01:07:41.560Z,4.18
2022-12-12T01:10:13.014Z,6.55
2022-12-12T01:12:43.193Z,6.40
2022-12-12T01:15:15.146Z,5.50
2022-12-12T01:17:47.920Z,5.72
2022-12-12T01:20:20.671Z,5.05
2022-12-12T01:22:51.339Z,5.53
2022-12-12T01:25:21.983Z,4.00
2022-12-12T01:27:52.197Z,5.90
2022-12-12T01:30:24.601Z,4.80
2022-12-12T01:32:57.588Z,5.13
2022-12-12T01:35:27.770Z,5.43
2022-12-12T01:37:57.900Z,5.43
2022-12-12T01:40:30.964Z,5.97
2022-12-12T01:43:01.972Z,5.80
2022-12-12T01:46:16.748Z,6.03
2022-12-12T01:48:54.939Z,4.97
2022-12-12T01:51:28.035Z,6.32
2022-12-12T01:54:04.813Z,4.97
2022-12-12T01:56:36.051Z,5.18
2022-12-12T01:59:11.019Z,5.47
2022-12-12T02:01:42.391Z,3.72
2022-12-12T02:04:16.328Z,5.63
2022-12-12T02:06:48.088Z,5.10
2022-12-12T02:09:20.258Z,5.15
2022-12-12T02:11:53.090Z,4.78
2022-12-12T02:14:28.910Z,4.22
2022-12-12T02:17:17.218Z,5.10
2022-12-12T02:20:19.558Z,5.00
2022-12-12T02:23:18.904Z,4.35
2022-12-12T02:26:10.632Z,5.05
2022-12-12T02:29:05.926Z,4.13
2022-12-12T02:31:50.804Z,5.07
2022-12-12T02:34:31.849Z,4.32
2022-12-12T02:37:10.567Z,4.10
2022-12-12T02:39:46.223Z,4.63
2022-12-12T02:42:24.781Z,4.90
2022-12-12T02:44:59.359Z,4.00
2022-12-12T02:47:35.287Z,4.00
2022-12-12T02:50:09.500Z,4.63
2022-12-12T02:52:40.014Z,5.50
2022-12-12T02:55:11.722Z,4.90
2022-12-12T02:57:42.861Z,4.38
2022-12-12T03:00:18.764Z,4.85
2022-12-12T03:03:36.039Z,3.10
2022-12-12T03:06:37.760Z,4.60
2022-12-12T03:09:19.911Z,5.25
2022-12-12T03:12:03.903Z,4.22
2022-12-12T03:14:45.592Z,4.53
2022-12-12T03:17:25.269Z,3.67
2022-12-12T03:20:04.038Z,5.50
2022-12-12T03:22:40.723Z,4.95
2022-12-12T03:25:16.872Z,3.95
2022-12-12T03:27:50.753Z,4.70
2022-12-12T03:30:22.760Z,4.95
2022-12-12T03:33:01.465Z,4.53
2022-12-12T03:35:40.185Z,3.72
2022-12-12T03:38:17.111Z,4.22
2022-12-12T03:40:52.200Z,3.83
2022-12-12T03:43:24.494Z,4.72
2022-12-12T03:45:58.766Z,4.30
2022-12-12T03:48:32.209Z,4.60
2022-12-12T03:51:07.955Z,3.67
2022-12-12T03:53:44.972Z,4.60
2022-12-12T03:56:21.867Z,5.20
2022-12-12T03:58:55.515Z,4.68
2022-12-12T04:01:35.355Z,5.53
2022-12-12T04:04:11.938Z,4.57
2022-12-12T04:06:51.664Z,5.10
2022-12-12T04:09:35.357Z,5.82
2022-12-12T04:12:27.446Z,4.15
2022-12-12T04:15:16.141Z,4.50
2022-12-12T04:17:52.789Z,4.03
2022-12-12T04:20:41.588Z,5.05
2022-12-12T04:23:27.023Z,4.35
2022-12-12T04:26:16.051Z,4.28
2022-12-12T04:28:53.436Z,5.38
2022-12-12T04:31:28.127Z,6.10
2022-12-12T04:34:05.133Z,5.57
2022-12-12T04:36:37.724Z,4.07
2022-12-12T04:39:13.840Z,4.38
2022-12-12T04:41:47.248Z,4.53
2022-12-12T04:44:20.583Z,4.50
2022-12-12T04:46:54.931Z,5.38
2022-12-12T04:49:30.245Z,5.25
2022-12-12T04:52:05.121Z,5.68
2022-12-12T04:54:43.989Z,5.28
2022-12-12T04:57:18.678Z,6.22
2022-12-12T04:59:49.288Z,5.10
2022-12-12T05:02:27.423Z,4.32
2022-12-12T05:05:02.365Z,5.30
2022-12-12T05:07:40.254Z,4.80
2022-12-12T05:10:16.676Z,3.72
2022-12-12T05:12:49.131Z,5.38
2022-12-12T05:15:21.226Z,3.65
2022-12-12T05:17:56.860Z,5.43
2022-12-12T05:20:26.894Z,5.88
2022-12-12T05:22:56.936Z,4.72
2022-12-12T05:25:29.853Z,5.68
2022-12-12T05:28:00.166Z,4.60
2022-12-12T05:30:31.751Z,5.72
2022-12-12T05:33:03.366Z,5.03
2022-12-12T05:35:36.826Z,6.40
2022-12-12T05:38:06.900Z,5.78
2022-12-12T05:40:39.568Z,5.72
2022-12-12T05:43:09.627Z,5.75
2022-12-12T05:45:39.715Z,6.03
2022-12-12T05:48:09.833Z,5.60
2022-12-12T05:50:39.957Z,5.50
2022-12-12T05:53:09.934Z,5.43
2022-12-12T05:55:42.678Z,4.50
2022-12-12T05:58:12.761Z,6.22
2022-12-12T06:00:42.768Z,5.00
2022-12-12T06:03:12.839Z,5.88
2022-12-12T06:05:42.892Z,5.70
2022-12-12T06:08:12.974Z,4.97
2022-12-12T06:10:45.994Z,5.20
2022-12-12T06:13:15.963Z,5.43
2022-12-12T06:15:45.980Z,4.68
2022-12-12T06:18:16.176Z,5.35
2022-12-12T06:20:47.142Z,7.70
2022-12-12T06:23:17.221Z,5.85
2022-12-12T06:25:52.784Z,7.38
2022-12-12T06:28:22.869Z,7.18
2022-12-12T06:30:53.038Z,5.43
2022-12-12T06:33:23.150Z,6.22
2022-12-12T06:36:01.283Z,6.15
2022-12-12T06:38:32.588Z,5.05
2022-12-12T06:41:08.817Z,6.00
2022-12-12T06:43:38.909Z,6.15
2022-12-12T06:46:15.249Z,4.13
2022-12-12T06:48:46.015Z,5.38
2022-12-12T06:51:19.353Z,4.80
2022-12-12T06:53:49.914Z,4.78
2022-12-12T06:56:25.499Z,5.40
2022-12-12T06:58:56.482Z,6.22
2022-12-12T07:01:27.397Z,5.65
2022-12-12T07:03:58.278Z,4.25
2022-12-12T07:06:28.879Z,4.25
2022-12-12T07:09:03.089Z,3.22
2022-12-12T07:11:36.080Z,5.80
2022-12-12T07:14:07.729Z,3.85
2022-12-12T07:16:37.839Z,4.03
2022-12-12T07:19:07.905Z,3.53
2022-12-12T07:21:38.005Z,3.33
2022-12-12T07:24:08.724Z,4.72
2022-12-12T07:26:41.565Z,4.03
2022-12-12T07:29:11.816Z,3.20
2022-12-12T07:31:42.087Z,5.43
2022-12-12T07:34:12.234Z,4.65
2022-12-12T07:36:42.437Z,4.68
2022-12-12T07:39:20.186Z,5.00
2022-12-12T07:41:53.636Z,2.85
2022-12-12T07:44:23.628Z,6.40
2022-12-12T07:46:53.731Z,4.05
2022-12-12T07:49:24.645Z,4.93
2022-12-12T07:51:55.062Z,5.95
2022-12-12T07:54:34.430Z,6.32
2022-12-12T07:57:07.067Z,5.30
2022-12-12T07:59:37.222Z,5.60
2022-12-12T08:02:07.418Z,5.55
2022-12-12T08:04:37.627Z,4.97
2022-12-12T08:07:08.730Z,5.72
2022-12-12T08:09:39.425Z,6.05
2022-12-12T08:12:12.237Z,3.88
2022-12-12T08:14:42.409Z,5.70
2022-12-12T08:17:12.466Z,4.00
2022-12-12T08:19:42.760Z,5.43
2022-12-12T08:22:13.043Z,4.45
2022-12-12T08:24:43.492Z,3.92
2022-12-12T08:27:16.203Z,4.28
2022-12-12T08:29:49.363Z,4.55
2022-12-12T08:32:19.368Z,4.53
2022-12-12T08:34:49.603Z,5.57
2022-12-12T08:37:19.679Z,6.63
2022-12-12T08:39:54.199Z,6.88
2022-12-12T08:42:28.280Z,5.88
2022-12-12T08:44:58.310Z,3.95
2022-12-12T08:47:29.282Z,4.88
2022-12-12T08:50:00.799Z,4.38
2022-12-12T08:52:30.991Z,4.53
2022-12-12T08:55:01.193Z,7.63
2022-12-12T08:57:33.849Z,4.55
2022-12-12T09:00:04.111Z,5.63
2022-12-12T09:02:34.354Z,5.15
2022-12-12T09:05:04.667Z,4.15
2022-12-12T09:07:34.757Z,3.67
2022-12-12T09:10:07.948Z,4.38
2022-12-12T09:12:42.195Z,5.37
2022-12-12T09:15:13.705Z,4.68
2022-12-12T09:17:44.113Z,3.47
2022-12-12T09:20:14.929Z,6.05
2022-12-12T09:22:45.266Z,5.95
2022-12-12T09:25:19.442Z,5.45
2022-12-12T09:27:52.308Z,5.47
2022-12-12T09:30:22.897Z,5.40
2022-12-12T09:32:55.162Z,4.53
2022-12-12T09:35:25.192Z,5.47
2022-12-12T09:37:56.507Z,5.47
2022-12-12T09:40:32.789Z,5.13
2022-12-12T09:43:06.208Z,5.57
2022-12-12T09:45:41.034Z,4.93
2022-12-12T09:48:11.398Z,3.97
2022-12-12T09:50:48.112Z,4.95
2022-12-12T09:53:21.543Z,5.53
2022-12-12T09:56:01.500Z,6.40
2022-12-12T09:58:46.719Z,6.50
2022-12-12T10:01:24.990Z,5.38
2022-12-12T10:04:06.315Z,4.55
2022-12-12T10:06:44.117Z,5.20
2022-12-12T10:09:36.102Z,4.63
2022-12-12T10:12:10.521Z,5.07
2022-12-12T10:14:46.925Z,6.45
2022-12-12T10:17:21.870Z,5.47
2022-12-12T10:19:55.229Z,6.35
2022-12-12T10:22:35.485Z,5.40
2022-12-12T10:25:24.686Z,4.22
2022-12-12T10:27:58.214Z,4.72
2022-12-12T10:30:36.808Z,4.70
2022-12-12T10:33:19.536Z,4.45
2022-12-12T10:35:57.320Z,4.78
2022-12-12T10:38:47.631Z,5.00
2022-12-12T10:41:30.536Z,5.05
2022-12-12T10:44:06.787Z,4.35
2022-12-12T10:46:46.286Z,4.25
2022-12-12T10:49:19.367Z,4.60
2022-12-12T10:51:51.558Z,4.97
2022-12-12T10:54:24.205Z,4.15
2022-12-12T10:57:20.072Z,5.05
2022-12-12T10:59:53.591Z,5.10
2022-12-12T11:02:45.436Z,4.97
2022-12-12T11:05:23.833Z,4.30
2022-12-12T11:08:05.645Z,3.08
2022-12-12T11:10:38.181Z,4.30
2022-12-12T11:13:18.920Z,4.60
2022-12-12T11:15:53.884Z,4.35
2022-12-12T11:18:27.880Z,4.68
2022-12-12T11:23:32.395Z,2.90
2022-12-12T11:26:05.646Z,4.20
2022-12-12T11:28:38.376Z,3.90
2022-12-12T11:31:11.845Z,4.57
2022-12-12T11:33:49.083Z,4.68
2022-12-12T11:36:22.071Z,3.97
2022-12-12T11:38:54.369Z,3.75
2022-12-12T11:41:24.716Z,4.95
2022-12-12T11:44:01.637Z,4.78
2022-12-12T11:46:34.386Z,3.47
2022-12-12T11:49:08.701Z,4.43
2022-12-12T11:51:41.235Z,4.03
2022-12-12T11:54:16.284Z,4.28
2022-12-12T11:56:50.237Z,4.20
2022-12-12T11:59:54.900Z,4.75
2022-12-12T12:02:49.506Z,4.00
2022-12-12T12:05:30.848Z,6.45
2022-12-12T12:08:12.790Z,4.88
2022-12-12T12:10:58.791Z,4.65
2022-12-12T12:13:45.772Z,5.15
2022-12-12T12:16:25.054Z,5.10
2022-12-12T12:19:06.169Z,5.00
2022-12-12T12:21:50.180Z,4.47
2022-12-12T12:24:41.692Z,5.13
2022-12-12T12:27:19.408Z,3.53
2022-12-12T12:30:07.716Z,4.00
2022-12-12T12:32:55.232Z,3.38
2022-12-12T12:35:32.142Z,3.75
2022-12-12T12:38:19.450Z,4.22
2022-12-12T12:41:07.146Z,5.57
2022-12-12T12:43:56.548Z,3.60
2022-12-12T12:46:38.069Z,3.47
2022-12-12T12:49:18.013Z,2.83
2022-12-12T12:51:53.284Z,4.22
2022-12-12T12:54:29.453Z,5.68
2022-12-12T12:57:06.412Z,5.75
2022-12-12T12:59:40.956Z,4.00
2022-12-12T13:02:25.204Z,4.80
2022-12-12T13:05:06.970Z,4.10
2022-12-12T13:07:45.534Z,5.43
2022-12-12T13:10:26.297Z,4.38
2022-12-12T13:13:01.217Z,4.50
2022-12-12T13:15:36.506Z,5.47
2022-12-12T13:18:09.372Z,4.90
2022-12-12T13:20:43.462Z,4.25
2022-12-12T13:26:01.800Z,4.35
2022-12-12T13:28:43.263Z,3.30
2022-12-12T13:31:48.705Z,5.45
2022-12-12T13:34:22.550Z,5.50
2022-12-12T13:36:54.702Z,5.32
2022-12-12T13:39:32.371Z,3.90
2022-12-12T13:42:07.386Z,3.88
2022-12-12T13:44:41.737Z,3.88
2022-12-12T13:47:31.232Z,5.25
2022-12-12T13:50:09.454Z,5.65
2022-12-12T13:52:43.585Z,5.55
2022-12-12T13:55:23.677Z,5.22
2022-12-12T13:58:19.529Z,5.35
2022-12-12T14:00:50.357Z,5.55
2022-12-12T14:03:31.803Z,4.70
2022-12-12T14:06:14.484Z,5.80
2022-12-12T14:08:52.234Z,5.45
2022-12-12T14:11:33.714Z,5.05
2022-12-12T14:14:11.066Z,5.85
2022-12-12T14:16:41.301Z,5.57
2022-12-12T14:19:29.104Z,5.93
2022-12-12T14:21:59.703Z,5.97
2022-12-12T14:24:59.631Z,5.30
2022-12-12T14:27:59.736Z,5.15
2022-12-12T14:30:46.767Z,5.68
2022-12-12T14:33:53.486Z,6.07
2022-12-12T14:36:45.502Z,4.80
2022-12-12T14:39:28.286Z,5.20
2022-12-12T14:42:00.571Z,3.42
2022-12-12T14:44:38.017Z,5.15
2022-12-12T14:47:22.374Z,5.43
2022-12-12T14:50:11.231Z,5.93
2022-12-12T14:52:43.627Z,5.63
2022-12-12T14:55:18.774Z,5.35
2022-12-12T14:57:51.981Z,4.57
2022-12-12T15:00:24.013Z,7.90
2022-12-12T15:02:58.173Z,5.10
2022-12-12T15:05:28.604Z,5.55
2022-12-12T15:08:02.444Z,4.80
2022-12-12T15:10:33.830Z,4.28
2022-12-12T15:13:03.895Z,3.30
2022-12-12T15:15:35.979Z,4.47
2022-12-12T15:18:09.043Z,5.78
2022-12-12T15:20:39.639Z,5.57
2022-12-12T15:23:10.486Z,4.22
2022-12-12T15:25:44.558Z,4.22
2022-12-12T15:28:19.449Z,3.90
2022-12-12T15:30:53.743Z,4.57
2022-12-12T15:33:29.690Z,3.58
2022-12-12T15:36:02.942Z,6.25
2022-12-12T15:38:34.620Z,4.97
2022-12-12T15:41:13.100Z,5.43
2022-12-12T15:43:45.087Z,4.85
2022-12-12T15:46:17.504Z,3.88
2022-12-12T15:48:51.518Z,5.47
2022-12-12T15:53:56.678Z,3.40
2022-12-12T15:56:28.947Z,3.92
2022-12-12T15:59:18.200Z,4.55
2022-12-12T16:01:48.304Z,5.07
2022-12-12T16:04:28.792Z,3.58
2022-12-12T16:07:23.155Z,5.13
2022-12-12T16:10:03.559Z,5.18
2022-12-12T16:12:59.397Z,4.20
2022-12-12T16:15:36.471Z,4.05
2022-12-12T16:18:09.790Z,3.60
2022-12-12T16:20:49.484Z,4.30
2022-12-12T16:23:26.071Z,4.68
2022-12-12T16:25:56.477Z,5.38
2022-12-12T16:28:31.093Z,3.58
2022-12-12T16:31:04.267Z,4.93
2022-12-12T16:33:36.972Z,5.95
2022-12-12T16:36:13.083Z,5.55
2022-12-12T16:38:43.940Z,4.82
2022-12-12T16:41:17.477Z,2.88
2022-12-12T16:43:48.322Z,5.72
2022-12-12T16:46:23.179Z,4.53
2022-12-12T16:48:54.352Z,5.25
2022-12-12T16:51:31.099Z,7.55
2022-12-12T16:54:01.567Z,4.60
2022-12-12T16:56:31.721Z,5.35
2022-12-12T16:59:03.081Z,5.07
2022-12-12T17:01:38.592Z,4.07
2022-12-12T17:04:10.406Z,5.78
2022-12-12T17:06:43.128Z,3.97
2022-12-12T17:09:13.297Z,5.75
2022-12-12T17:11:43.357Z,5.65
2022-12-12T17:14:20.753Z,6.03
2022-12-12T17:16:51.216Z,5.35
2022-12-12T17:19:26.588Z,6.60
2022-12-12T17:22:01.949Z,6.85
2022-12-12T17:24:32.738Z,5.28
2022-12-12T17:27:02.810Z,5.03
2022-12-12T17:29:32.950Z,4.95
2022-12-12T17:32:03.168Z,5.75
2022-12-12T17:34:33.423Z,5.82
2022-12-12T17:37:06.129Z,5.93
2022-12-12T17:39:36.270Z,5.07
2022-12-12T17:42:11.871Z,5.45
2022-12-12T17:44:41.965Z,5.00
2022-12-12T17:47:12.138Z,5.57
2022-12-12T17:49:43.200Z,5.85
2022-12-12T17:52:16.530Z,4.85
2022-12-12T17:55:51.743Z,5.93
2022-12-12T17:57:37.764Z,5.85
2022-12-12T18:00:11.938Z,6.32
2022-12-12T18:02:42.366Z,6.18
2022-12-12T18:05:12.663Z,6.57
2022-12-12T18:07:45.306Z,5.50
2022-12-12T18:10:17.629Z,4.68
2022-12-12T18:12:51.581Z,5.95
2022-12-12T18:15:22.242Z,5.22
2022-12-12T18:17:52.290Z,5.43
2022-12-12T18:20:28.073Z,5.57
2022-12-12T18:23:03.799Z,6.82
2022-12-12T18:25:33.944Z,5.10
2022-12-12T18:28:04.103Z,5.30
2022-12-12T18:30:34.497Z,5.72
2022-12-12T18:33:04.682Z,6.15
2022-12-12T18:35:34.836Z,3.72
2022-12-12T18:38:07.626Z,6.38
2022-12-12T18:40:39.398Z,6.65
2022-12-12T18:43:09.683Z,5.18
2022-12-12T18:45:40.549Z,7.85
2022-12-12T18:48:10.674Z,6.43
2022-12-12T18:50:41.130Z,6.85
2022-12-12T18:53:14.089Z,6.53
2022-12-12T18:55:45.164Z,5.82
2022-12-12T18:58:15.500Z,6.03
2022-12-12T19:00:46.249Z,6.75
2022-12-12T19:03:16.559Z,6.30
2022-12-12T19:05:47.433Z,4.75
2022-12-12T19:08:20.390Z,4.65
2022-12-12T19:10:51.371Z,5.38
2022-12-12T19:13:21.563Z,5.05
2022-12-12T19:15:51.682Z,6.13
2022-12-12T19:18:22.336Z,4.35
2022-12-12T19:20:54.629Z,5.47
2022-12-12T19:23:27.456Z,6.03
2022-12-12T19:25:57.475Z,9.20
2022-12-12T19:28:27.976Z,9.43
2022-12-12T19:30:58.389Z,9.75
2022-12-12T19:33:29.213Z,5.07
2022-12-12T19:35:59.607Z,7.75
2022-12-12T19:38:33.680Z,6.85
2022-12-12T19:41:05.882Z,10.18
2022-12-12T19:43:36.237Z,6.40
2022-12-12T19:46:08.350Z,6.10
2022-12-12T19:48:39.135Z,7.68
2022-12-12T19:51:11.815Z,8.32
2022-12-12T19:53:46.824Z,6.80
2022-12-12T19:56:19.393Z,8.10
2022-12-12T19:58:50.514Z,8.07
2022-12-12T20:01:22.682Z,8.65
2022-12-12T20:03:53.825Z,8.75
2022-12-12T20:06:24.684Z,8.25
2022-12-12T20:08:57.782Z,6.32
2022-12-12T20:11:28.801Z,8.10
2022-12-12T20:14:01.750Z,6.78
2022-12-12T20:16:32.363Z,6.53
2022-12-12T20:19:02.674Z,5.82
2022-12-12T20:24:26.773Z,7.18
2022-12-12T20:26:57.115Z,7.88
2022-12-12T20:29:27.468Z,8.15
2022-12-12T20:31:59.845Z,7.85
2022-12-12T20:34:30.967Z,6.57
2022-12-12T20:37:03.994Z,5.43
2022-12-12T20:39:37.647Z,5.57
2022-12-12T20:42:07.854Z,5.85
2022-12-12T20:44:38.314Z,8.35
2022-12-12T20:47:17.519Z,7.38
2022-12-12T20:49:49.760Z,7.70
2022-12-12T20:52:23.243Z,8.20
2022-12-12T20:54:55.992Z,7.60
2022-12-12T20:57:26.233Z,6.68
2022-12-12T20:59:56.538Z,6.05
2022-12-12T21:02:30.221Z,6.15
2022-12-12T21:07:30.456Z,7.30
2022-12-12T21:10:05.152Z,10.45
2022-12-12T21:12:38.306Z,13.37
2022-12-12T21:15:09.619Z,8.98
2022-12-12T21:17:39.742Z,10.23
2022-12-12T21:20:11.513Z,10.02
2022-12-12T21:22:41.733Z,6.85
2022-12-12T21:25:14.626Z,8.70
2022-12-12T21:27:44.950Z,8.77
2022-12-12T21:32:48.851Z,5.80
2022-12-12T21:35:19.248Z,6.05
2022-12-12T21:37:49.438Z,5.88
2022-12-12T21:40:25.095Z,7.20
2022-12-12T21:42:55.579Z,7.20
2022-12-12T21:45:31.700Z,8.80
2022-12-12T21:48:02.188Z,8.40
2022-12-12T21:50:38.022Z,8.18
2022-12-12T21:53:20.569Z,6.38
2022-12-12T21:55:53.330Z,7.18
2022-12-12T21:58:23.662Z,6.57
2022-12-12T22:00:54.231Z,7.30
2022-12-12T22:03:24.387Z,6.63
2022-12-12T22:05:54.636Z,6.85
2022-12-12T22:08:24.892Z,5.22
2022-12-12T22:10:57.980Z,6.63
2022-12-12T22:13:28.036Z,5.85
2022-12-12T22:16:01.453Z,6.03
2022-12-12T22:18:31.746Z,6.10
2022-12-12T22:21:11.476Z,5.80
2022-12-12T22:23:42.108Z,6.63
2022-12-12T22:26:19.525Z,7.50
2022-12-12T22:28:50.636Z,7.07
2022-12-12T22:31:21.320Z,6.25
2022-12-12T22:33:56.149Z,6.85
2022-12-12T22:36:28.775Z,6.38
2022-12-12T22:39:00.287Z,7.07
2022-12-12T22:41:33.456Z,6.80
2022-12-12T22:44:07.695Z,7.10
2022-12-12T22:46:43.588Z,5.50
2022-12-12T22:49:16.186Z,6.57
2022-12-12T22:51:46.858Z,6.22
2022-12-12T22:54:17.034Z,6.72
2022-12-12T22:56:49.789Z,6.60
2022-12-12T22:59:19.914Z,6.90
2022-12-12T23:01:50.101Z,6.97
2022-12-12T23:04:20.886Z,6.78
2022-12-12T23:06:50.953Z,6.78
2022-12-12T23:09:26.328Z,6.60
2022-12-12T23:11:59.260Z,6.00
2022-12-12T23:14:29.673Z,6.38
2022-12-12T23:16:59.770Z,6.85
2022-12-12T23:19:29.876Z,5.68
2022-12-12T23:22:00.405Z,7.25
2022-12-12T23:24:30.536Z,6.60
2022-12-12T23:27:05.186Z,6.45
2022-12-12T23:29:38.321Z,5.93
2022-12-12T23:32:08.508Z,5.87
2022-12-12T23:34:38.818Z,4.90
2022-12-12T23:37:09.476Z,7.13
2022-12-12T23:39:40.587Z,6.68
2022-12-12T23:42:13.371Z,5.45
2022-12-12T23:44:43.662Z,8.40
2022-12-12T23:47:13.943Z,5.93
2022-12-12T23:49:44.742Z,5.30
2022-12-12T23:52:15.133Z,7.50
2022-12-12T23:54:48.346Z,7.43
2022-12-12T23:57:21.071Z,6.22
2022-12-12T23:59:54.362Z,7.88
